sensor_id;sensor_type;location;lat;lon;timestamp;pressure;altitude;pressure_sealevel;temperature;humidity
76590;BME280;65471;55.908;37.880;2023-04-21T00:01:39;99946.53;;;5.44;56.02
76590;BME280;65471;55.908;37.880;2023-04-21T00:04:05;99947.72;;;5.41;55.44
76590;BME280;65471;55.908;37.880;2023-04-21T00:06:33;99948.13;;;5.38;54.93
76590;BME280;65471;55.908;37.880;2023-04-21T00:09:00;99948.50;;;5.35;55.92
76590;BME280;65471;55.908;37.880;2023-04-21T00:11:26;99940.00;;;5.31;55.57
76590;BME280;65471;55.908;37.880;2023-04-21T00:13:53;99941.44;;;5.27;54.99
76590;BME280;65471;55.908;37.880;2023-04-21T00:16:21;99946.34;;;5.24;55.26
76590;BME280;65471;55.908;37.880;2023-04-21T00:18:48;99938.03;;;5.18;55.43
76590;BME280;65471;55.908;37.880;2023-04-21T00:21:15;99947.94;;;5.18;55.65
76590;BME280;65471;55.908;37.880;2023-04-21T00:23:44;99937.16;;;5.11;56.25
76590;BME280;65471;55.908;37.880;2023-04-21T00:26:12;99942.09;;;5.08;56.63
76590;BME280;65471;55.908;37.880;2023-04-21T00:28:39;99946.59;;;5.07;56.87
76590;BME280;65471;55.908;37.880;2023-04-21T00:31:06;99938.94;;;5.04;56.17
76590;BME280;65471;55.908;37.880;2023-04-21T00:33:33;99937.66;;;5.00;56.34
76590;BME280;65471;55.908;37.880;2023-04-21T00:36:00;99939.06;;;4.96;56.50
76590;BME280;65471;55.908;37.880;2023-04-21T00:38:27;99939.25;;;4.94;57.18
76590;BME280;65471;55.908;37.880;2023-04-21T00:40:54;99935.31;;;4.90;56.38
76590;BME280;65471;55.908;37.880;2023-04-21T00:43:21;99929.91;;;4.83;56.67
76590;BME280;65471;55.908;37.880;2023-04-21T00:45:47;99931.28;;;4.79;57.45
76590;BME280;65471;55.908;37.880;2023-04-21T00:48:14;99926.31;;;4.76;57.07
76590;BME280;65471;55.908;37.880;2023-04-21T00:50:44;99924.03;;;4.73;56.79
76590;BME280;65471;55.908;37.880;2023-04-21T00:53:13;99920.88;;;4.70;56.79
76590;BME280;65471;55.908;37.880;2023-04-21T00:55:40;99923.75;;;4.68;57.55
76590;BME280;65471;55.908;37.880;2023-04-21T00:58:07;99911.56;;;4.65;57.58
76590;BME280;65471;55.908;37.880;2023-04-21T01:00:34;99906.59;;;4.62;57.71
76590;BME280;65471;55.908;37.880;2023-04-21T01:03:03;99904.50;;;4.58;57.56
76590;BME280;65471;55.908;37.880;2023-04-21T01:05:32;99912.72;;;4.56;57.70
76590;BME280;65471;55.908;37.880;2023-04-21T01:08:00;99903.84;;;4.56;57.59
76590;BME280;65471;55.908;37.880;2023-04-21T01:10:27;99906.88;;;4.53;58.25
76590;BME280;65471;55.908;37.880;2023-04-21T01:12:54;99906.25;;;4.51;58.13
76590;BME280;65471;55.908;37.880;2023-04-21T01:15:21;99907.66;;;4.46;58.56
76590;BME280;65471;55.908;37.880;2023-04-21T01:17:48;99899.16;;;4.43;58.63
76590;BME280;65471;55.908;37.880;2023-04-21T01:20:15;99899.53;;;4.40;58.12
76590;BME280;65471;55.908;37.880;2023-04-21T01:22:42;99897.44;;;4.35;58.08
76590;BME280;65471;55.908;37.880;2023-04-21T01:25:10;99904.81;;;4.33;57.89
76590;BME280;65471;55.908;37.880;2023-04-21T01:27:37;99897.81;;;4.32;58.65
76590;BME280;65471;55.908;37.880;2023-04-21T01:30:05;99903.34;;;4.30;58.07
76590;BME280;65471;55.908;37.880;2023-04-21T01:32:33;99903.34;;;4.30;57.48
76590;BME280;65471;55.908;37.880;2023-04-21T01:35:00;99901.69;;;4.29;58.38
76590;BME280;65471;55.908;37.880;2023-04-21T01:37:30;99905.56;;;4.27;57.95
76590;BME280;65471;55.908;37.880;2023-04-21T01:39:59;99906.13;;;4.22;57.91
76590;BME280;65471;55.908;37.880;2023-04-21T01:42:30;99904.47;;;4.21;57.97
76590;BME280;65471;55.908;37.880;2023-04-21T01:44:57;99892.09;;;4.20;57.89
76590;BME280;65471;55.908;37.880;2023-04-21T01:47:24;99893.94;;;4.20;58.35
76590;BME280;65471;55.908;37.880;2023-04-21T01:49:52;99896.81;;;4.18;58.06
76590;BME280;65471;55.908;37.880;2023-04-21T01:52:19;99886.13;;;4.18;58.41
76590;BME280;65471;55.908;37.880;2023-04-21T01:54:46;99895.16;;;4.17;58.25
76590;BME280;65471;55.908;37.880;2023-04-21T01:57:14;99884.63;;;4.15;58.33
76590;BME280;65471;55.908;37.880;2023-04-21T01:59:42;99892.84;;;4.14;58.48
76590;BME280;65471;55.908;37.880;2023-04-21T02:02:09;99891.38;;;4.11;59.22
76590;BME280;65471;55.908;37.880;2023-04-21T02:04:36;99892.22;;;4.12;59.50
76590;BME280;65471;55.908;37.880;2023-04-21T02:07:03;99895.25;;;4.09;59.52
76590;BME280;65471;55.908;37.880;2023-04-21T02:09:30;99895.44;;;4.07;59.35
76590;BME280;65471;55.908;37.880;2023-04-21T02:11:57;99885.56;;;4.08;58.56
76590;BME280;65471;55.908;37.880;2023-04-21T02:14:24;99884.53;;;4.09;58.68
76590;BME280;65471;55.908;37.880;2023-04-21T02:16:52;99869.72;;;4.06;58.62
76590;BME280;65471;55.908;37.880;2023-04-21T02:19:19;99886.59;;;4.07;59.12
76590;BME280;65471;55.908;37.880;2023-04-21T02:21:46;99880.59;;;4.05;59.39
76590;BME280;65471;55.908;37.880;2023-04-21T02:24:13;99886.13;;;4.03;58.88
76590;BME280;65471;55.908;37.880;2023-04-21T02:26:40;99886.13;;;4.03;58.82
76590;BME280;65471;55.908;37.880;2023-04-21T02:29:07;99880.94;;;4.02;59.24
76590;BME280;65471;55.908;37.880;2023-04-21T02:31:34;99888.97;;;4.02;59.29
76590;BME280;65471;55.908;37.880;2023-04-21T02:34:15;99885.19;;;3.96;58.91
76590;BME280;65471;55.908;37.880;2023-04-21T02:36:42;99890.22;;;3.99;58.76
76590;BME280;65471;55.908;37.880;2023-04-21T02:39:09;99891.41;;;3.96;58.79
76590;BME280;65471;55.908;37.880;2023-04-21T02:41:36;99890.38;;;3.97;58.94
76590;BME280;65471;55.908;37.880;2023-04-21T02:44:03;99891.41;;;3.96;59.23
76590;BME280;65471;55.908;37.880;2023-04-21T02:46:30;99895.09;;;3.95;59.17
76590;BME280;65471;55.908;37.880;2023-04-21T02:48:57;99890.56;;;3.96;59.45
76590;BME280;65471;55.908;37.880;2023-04-21T02:51:23;99890.94;;;3.93;59.33
76590;BME280;65471;55.908;37.880;2023-04-21T02:53:51;99892.97;;;3.91;59.86
76590;BME280;65471;55.908;37.880;2023-04-21T02:56:18;99892.13;;;3.90;59.89
76590;BME280;65471;55.908;37.880;2023-04-21T02:58:45;99890.47;;;3.89;60.27
76590;BME280;65471;55.908;37.880;2023-04-21T03:01:12;99885.31;;;3.88;60.38
76590;BME280;65471;55.908;37.880;2023-04-21T03:03:39;99885.31;;;3.88;60.58
76590;BME280;65471;55.908;37.880;2023-04-21T03:06:06;99890.66;;;3.88;61.54
76590;BME280;65471;55.908;37.880;2023-04-21T03:08:33;99891.50;;;3.88;60.58
76590;BME280;65471;55.908;37.880;2023-04-21T03:11:00;99900.16;;;3.90;60.38
76590;BME280;65471;55.908;37.880;2023-04-21T03:13:26;99890.94;;;3.93;61.17
76590;BME280;65471;55.908;37.880;2023-04-21T03:15:53;99888.91;;;3.95;61.17
76590;BME280;65471;55.908;37.880;2023-04-21T03:18:20;99897.00;;;4.02;60.67
76590;BME280;65471;55.908;37.880;2023-04-21T03:20:50;99892.38;;;4.10;59.54
76590;BME280;65471;55.908;37.880;2023-04-21T03:23:17;99893.13;;;4.19;59.11
76590;BME280;65471;55.908;37.880;2023-04-21T03:25:44;99895.88;;;4.26;58.93
76590;BME280;65471;55.908;37.880;2023-04-21T03:28:11;99901.94;;;4.35;57.83
76590;BME280;65471;55.908;37.880;2023-04-21T03:30:38;99901.84;;;4.43;58.06
76590;BME280;65471;55.908;37.880;2023-04-21T03:33:05;99905.22;;;4.52;56.70
76590;BME280;65471;55.908;37.880;2023-04-21T03:35:32;99904.91;;;4.61;55.93
76590;BME280;65471;55.908;37.880;2023-04-21T03:37:59;99900.94;;;4.72;55.99
76590;BME280;65471;55.908;37.880;2023-04-21T03:40:29;99904.69;;;4.78;56.38
76590;BME280;65471;55.908;37.880;2023-04-21T03:42:56;99897.94;;;4.82;57.16
76590;BME280;65471;55.908;37.880;2023-04-21T03:45:23;99902.72;;;4.87;56.14
76590;BME280;65471;55.908;37.880;2023-04-21T03:47:53;99904.63;;;4.93;55.86
76590;BME280;65471;55.908;37.880;2023-04-21T03:50:21;99896.84;;;4.98;55.66
76590;BME280;65471;55.908;37.880;2023-04-21T03:52:49;99901.44;;;5.04;56.08
76590;BME280;65471;55.908;37.880;2023-04-21T03:55:16;99899.63;;;5.11;55.23
76590;BME280;65471;55.908;37.880;2023-04-21T03:57:42;99902.38;;;5.18;54.93
76590;BME280;65471;55.908;37.880;2023-04-21T04:00:10;99906.75;;;5.26;55.15
76590;BME280;65471;55.908;37.880;2023-04-21T04:02:37;99899.81;;;5.31;54.65
76590;BME280;65471;55.908;37.880;2023-04-21T04:05:05;99907.28;;;5.36;54.60
76590;BME280;65471;55.908;37.880;2023-04-21T04:07:32;99903.19;;;5.40;54.61
76590;BME280;65471;55.908;37.880;2023-04-21T04:09:59;99910.88;;;5.50;54.83
76590;BME280;65471;55.908;37.880;2023-04-21T04:12:26;99903.09;;;5.55;54.84
76590;BME280;65471;55.908;37.880;2023-04-21T04:14:53;99890.53;;;5.62;54.94
76590;BME280;65471;55.908;37.880;2023-04-21T04:17:20;99901.75;;;5.73;54.86
76590;BME280;65471;55.908;37.880;2023-04-21T04:19:47;99892.31;;;5.83;53.78
76590;BME280;65471;55.908;37.880;2023-04-21T04:22:14;99892.59;;;5.95;53.28
76590;BME280;65471;55.908;37.880;2023-04-21T04:24:41;99889.16;;;6.08;52.87
76590;BME280;65471;55.908;37.880;2023-04-21T04:27:10;99897.50;;;6.20;53.19
76590;BME280;65471;55.908;37.880;2023-04-21T04:29:39;99888.19;;;6.22;52.92
76590;BME280;65471;55.908;37.880;2023-04-21T04:32:07;99894.22;;;6.31;52.72
76590;BME280;65471;55.908;37.880;2023-04-21T04:34:37;99884.75;;;6.42;51.77
76590;BME280;65471;55.908;37.880;2023-04-21T04:37:04;99892.06;;;6.62;51.28
76590;BME280;65471;55.908;37.880;2023-04-21T04:39:32;99887.34;;;6.77;50.00
76590;BME280;65471;55.908;37.880;2023-04-21T04:41:59;99895.66;;;6.96;49.62
76590;BME280;65471;55.908;37.880;2023-04-21T04:44:27;99893.78;;;7.09;49.02
76590;BME280;65471;55.908;37.880;2023-04-21T04:46:54;99889.22;;;7.23;48.24
76590;BME280;65471;55.908;37.880;2023-04-21T04:49:22;99890.88;;;7.38;47.85
76590;BME280;65471;55.908;37.880;2023-04-21T04:51:49;99890.88;;;7.51;47.31
76590;BME280;65471;55.908;37.880;2023-04-21T04:54:22;99887.94;;;7.66;46.73
76590;BME280;65471;55.908;37.880;2023-04-21T04:56:50;99890.44;;;7.81;46.21
76590;BME280;65471;55.908;37.880;2023-04-21T04:59:17;99892.25;;;7.94;45.81
76590;BME280;65471;55.908;37.880;2023-04-21T05:01:44;99882.25;;;8.08;45.42
76590;BME280;65471;55.908;37.880;2023-04-21T05:04:11;99885.50;;;8.23;44.62
76590;BME280;65471;55.908;37.880;2023-04-21T05:06:42;99879.66;;;8.40;43.79
76590;BME280;65471;55.908;37.880;2023-04-21T05:09:09;99871.28;;;8.55;43.33
76590;BME280;65471;55.908;37.880;2023-04-21T05:11:36;99872.88;;;8.69;43.08
76590;BME280;65471;55.908;37.880;2023-04-21T05:14:03;99868.22;;;8.83;42.74
76590;BME280;65471;55.908;37.880;2023-04-21T05:16:29;99871.03;;;8.95;43.16
76590;BME280;65471;55.908;37.880;2023-04-21T05:19:00;99865.94;;;9.12;42.84
76590;BME280;65471;55.908;37.880;2023-04-21T05:21:27;99864.78;;;9.26;42.36
76590;BME280;65471;55.908;37.880;2023-04-21T05:23:55;99863.22;;;9.37;42.09
76590;BME280;65471;55.908;37.880;2023-04-21T05:26:27;99858.75;;;9.49;41.22
76590;BME280;65471;55.908;37.880;2023-04-21T05:28:56;99855.34;;;9.61;41.22
76590;BME280;65471;55.908;37.880;2023-04-21T05:31:24;99853.97;;;9.70;41.30
76590;BME280;65471;55.908;37.880;2023-04-21T05:33:51;99854.91;;;9.82;41.17
76590;BME280;65471;55.908;37.880;2023-04-21T05:36:18;99858.94;;;9.92;40.80
76590;BME280;65471;55.908;37.880;2023-04-21T05:38:50;99860.28;;;10.01;40.41
76590;BME280;65471;55.908;37.880;2023-04-21T05:41:18;99860.81;;;10.10;39.88
76590;BME280;65471;55.908;37.880;2023-04-21T05:43:44;99848.28;;;10.15;39.68
76590;BME280;65471;55.908;37.880;2023-04-21T05:46:13;99847.97;;;10.24;39.58
76590;BME280;65471;55.908;37.880;2023-04-21T05:48:40;99847.88;;;10.30;40.58
76590;BME280;65471;55.908;37.880;2023-04-21T05:51:09;99851.56;;;10.36;39.83
76590;BME280;65471;55.908;37.880;2023-04-21T05:53:37;99860.19;;;10.45;39.93
76590;BME280;65471;55.908;37.880;2023-04-21T05:56:07;99849.88;;;10.53;39.53
76590;BME280;65471;55.908;37.880;2023-04-21T05:58:34;99852.28;;;10.62;39.05
76590;BME280;65471;55.908;37.880;2023-04-21T06:01:02;99849.44;;;10.68;38.58
76590;BME280;65471;55.908;37.880;2023-04-21T06:03:30;99847.25;;;10.77;38.15
76590;BME280;65471;55.908;37.880;2023-04-21T06:06:03;99850.47;;;10.86;38.28
76590;BME280;65471;55.908;37.880;2023-04-21T06:08:31;99840.38;;;10.93;37.73
76590;BME280;65471;55.908;37.880;2023-04-21T06:10:58;99844.97;;;11.04;37.87
76590;BME280;65471;55.908;37.880;2023-04-21T06:13:24;99843.56;;;11.14;37.18
76590;BME280;65471;55.908;37.880;2023-04-21T06:15:53;99828.25;;;11.19;37.29
76590;BME280;65471;55.908;37.880;2023-04-21T06:18:20;99830.63;;;11.28;36.75
76590;BME280;65471;55.908;37.880;2023-04-21T06:20:51;99834.28;;;11.33;36.70
76590;BME280;65471;55.908;37.880;2023-04-21T06:23:18;99829.81;;;11.39;36.14
76590;BME280;65471;55.908;37.880;2023-04-21T06:25:46;99823.44;;;11.45;36.30
76590;BME280;65471;55.908;37.880;2023-04-21T06:28:13;99828.25;;;11.55;36.54
76590;BME280;65471;55.908;37.880;2023-04-21T06:30:40;99826.00;;;11.64;35.96
76590;BME280;65471;55.908;37.880;2023-04-21T06:33:07;99827.06;;;11.74;36.04
76590;BME280;65471;55.908;37.880;2023-04-21T06:35:34;99829.50;;;11.88;36.44
76590;BME280;65471;55.908;37.880;2023-04-21T06:38:01;99835.75;;;12.00;35.76
76590;BME280;65471;55.908;37.880;2023-04-21T06:40:28;99834.19;;;12.16;35.75
76590;BME280;65471;55.908;37.880;2023-04-21T06:42:55;99823.41;;;12.33;35.49
76590;BME280;65471;55.908;37.880;2023-04-21T06:45:22;99827.69;;;12.46;34.95
76590;BME280;65471;55.908;37.880;2023-04-21T06:47:49;99830.94;;;12.60;34.99
76590;BME280;65471;55.908;37.880;2023-04-21T06:50:16;99829.22;;;12.71;34.57
76590;BME280;65471;55.908;37.880;2023-04-21T06:52:43;99820.53;;;12.86;34.62
76590;BME280;65471;55.908;37.880;2023-04-21T06:55:09;99823.91;;;12.93;34.50
76590;BME280;65471;55.908;37.880;2023-04-21T06:57:37;99811.81;;;13.01;34.28
76590;BME280;65471;55.908;37.880;2023-04-21T07:00:04;99809.03;;;13.12;33.94
76590;BME280;65471;55.908;37.880;2023-04-21T07:02:32;99817.16;;;13.12;34.80
76590;BME280;65471;55.908;37.880;2023-04-21T07:04:59;99803.00;;;13.27;33.92
76590;BME280;65471;55.908;37.880;2023-04-21T07:07:26;99802.81;;;13.34;33.88
76590;BME280;65471;55.908;37.880;2023-04-21T07:09:53;99811.41;;;13.43;34.28
76590;BME280;65471;55.908;37.880;2023-04-21T07:12:20;99802.56;;;13.53;34.82
76590;BME280;65471;55.908;37.880;2023-04-21T07:14:47;99808.00;;;13.75;34.11
76590;BME280;65471;55.908;37.880;2023-04-21T07:17:14;99813.47;;;13.97;33.46
76590;BME280;65471;55.908;37.880;2023-04-21T07:19:41;99801.69;;;14.13;33.42
76590;BME280;65471;55.908;37.880;2023-04-21T07:22:07;99795.88;;;14.27;33.04
76590;BME280;65471;55.908;37.880;2023-04-21T07:24:34;99794.31;;;14.36;33.00
76590;BME280;65471;55.908;37.880;2023-04-21T07:27:03;99791.31;;;14.32;32.70
76590;BME280;65471;55.908;37.880;2023-04-21T07:29:29;99789.50;;;14.43;32.89
76590;BME280;65471;55.908;37.880;2023-04-21T07:31:57;99787.97;;;14.53;32.45
76590;BME280;65471;55.908;37.880;2023-04-21T07:34:24;99789.22;;;14.67;32.12
76590;BME280;65471;55.908;37.880;2023-04-21T07:36:53;99785.19;;;14.75;31.95
76590;BME280;65471;55.908;37.880;2023-04-21T07:39:21;99779.78;;;14.80;32.01
76590;BME280;65471;55.908;37.880;2023-04-21T07:41:48;99781.72;;;14.79;31.91
76590;BME280;65471;55.908;37.880;2023-04-21T07:44:15;99783.03;;;14.77;31.84
76590;BME280;65471;55.908;37.880;2023-04-21T07:46:42;99777.41;;;14.89;32.08
76590;BME280;65471;55.908;37.880;2023-04-21T07:49:09;99767.97;;;15.01;31.71
76590;BME280;65471;55.908;37.880;2023-04-21T07:51:36;99760.22;;;15.21;31.67
76590;BME280;65471;55.908;37.880;2023-04-21T07:54:03;99759.22;;;15.37;31.24
76590;BME280;65471;55.908;37.880;2023-04-21T07:56:29;99761.13;;;15.36;31.64
76590;BME280;65471;55.908;37.880;2023-04-21T07:58:57;99758.13;;;15.38;31.49
76590;BME280;65471;55.908;37.880;2023-04-21T08:01:23;99757.56;;;15.31;31.45
76590;BME280;65471;55.908;37.880;2023-04-21T08:03:50;99760.22;;;15.21;31.73
76590;BME280;65471;55.908;37.880;2023-04-21T08:06:17;99746.03;;;15.18;31.23
76590;BME280;65471;55.908;37.880;2023-04-21T08:08:45;99742.56;;;15.28;31.74
76590;BME280;65471;55.908;37.880;2023-04-21T08:11:11;99743.16;;;15.41;31.50
76590;BME280;65471;55.908;37.880;2023-04-21T08:13:38;99750.06;;;15.53;31.07
76590;BME280;65471;55.908;37.880;2023-04-21T08:16:11;99738.31;;;15.53;30.98
76590;BME280;65471;55.908;37.880;2023-04-21T08:18:39;99741.03;;;15.53;31.37
76590;BME280;65471;55.908;37.880;2023-04-21T08:21:06;99730.16;;;15.63;31.37
76590;BME280;65471;55.908;37.880;2023-04-21T08:23:33;99736.22;;;15.76;30.94
76590;BME280;65471;55.908;37.880;2023-04-21T08:26:01;99736.56;;;15.79;30.83
76590;BME280;65471;55.908;37.880;2023-04-21T08:28:28;99732.22;;;15.83;31.21
76590;BME280;65471;55.908;37.880;2023-04-21T08:30:55;99727.03;;;15.97;31.02
76590;BME280;65471;55.908;37.880;2023-04-21T08:33:22;99721.91;;;16.11;30.86
76590;BME280;65471;55.908;37.880;2023-04-21T08:35:49;99722.72;;;16.17;30.18
76590;BME280;65471;55.908;37.880;2023-04-21T08:38:29;99727.66;;;16.25;30.65
76590;BME280;65471;55.908;37.880;2023-04-21T08:40:58;99721.41;;;16.45;30.27
76590;BME280;65471;55.908;37.880;2023-04-21T08:43:27;99719.25;;;16.58;30.46
76590;BME280;65471;55.908;37.880;2023-04-21T08:45:54;99707.50;;;16.52;30.20
76590;BME280;65471;55.908;37.880;2023-04-21T08:48:21;99707.22;;;16.59;30.08
76590;BME280;65471;55.908;37.880;2023-04-21T08:50:50;99708.03;;;16.64;29.74
76590;BME280;65471;55.908;37.880;2023-04-21T08:53:16;99703.38;;;16.75;29.85
76590;BME280;65471;55.908;37.880;2023-04-21T08:55:44;99701.47;;;16.81;29.48
76590;BME280;65471;55.908;37.880;2023-04-21T08:58:16;99692.47;;;16.90;29.20
76590;BME280;65471;55.908;37.880;2023-04-21T09:00:43;99684.81;;;16.98;29.39
76590;BME280;65471;55.908;37.880;2023-04-21T09:03:10;99679.84;;;17.10;28.78
76590;BME280;65471;55.908;37.880;2023-04-21T09:06:01;99669.44;;;17.28;28.64
76590;BME280;65471;55.908;37.880;2023-04-21T09:08:32;99680.28;;;17.48;28.88
76590;BME280;65471;55.908;37.880;2023-04-21T09:11:00;99676.06;;;17.71;28.89
76590;BME280;65471;55.908;37.880;2023-04-21T09:13:35;99679.28;;;17.84;28.63
76590;BME280;65471;55.908;37.880;2023-04-21T09:16:04;99679.03;;;17.80;28.48
76590;BME280;65471;55.908;37.880;2023-04-21T09:18:40;99666.97;;;17.86;28.41
76590;BME280;65471;55.908;37.880;2023-04-21T09:21:12;99662.66;;;18.20;28.00
76590;BME280;65471;55.908;37.880;2023-04-21T09:23:49;99671.72;;;18.50;27.98
76590;BME280;65471;55.908;37.880;2023-04-21T09:26:18;99674.50;;;18.44;27.53
76590;BME280;65471;55.908;37.880;2023-04-21T09:28:47;99655.28;;;18.20;27.65
76590;BME280;65471;55.908;37.880;2023-04-21T09:31:15;99671.13;;;17.79;28.03
76590;BME280;65471;55.908;37.880;2023-04-21T09:33:57;99656.66;;;17.68;28.08
76590;BME280;65471;55.908;37.880;2023-04-21T09:36:28;99664.84;;;17.73;27.75
76590;BME280;65471;55.908;37.880;2023-04-21T09:39:00;99651.66;;;17.90;27.85
76590;BME280;65471;55.908;37.880;2023-04-21T09:41:48;99654.44;;;17.75;27.88
76590;BME280;65471;55.908;37.880;2023-04-21T09:44:15;99657.53;;;17.58;28.17
76590;BME280;65471;55.908;37.880;2023-04-21T09:46:47;99651.06;;;17.43;28.52
76590;BME280;65471;55.908;37.880;2023-04-21T09:49:21;99642.63;;;17.30;28.33
76590;BME280;65471;55.908;37.880;2023-04-21T09:51:49;99645.41;;;17.19;28.75
76590;BME280;65471;55.908;37.880;2023-04-21T09:54:42;99625.94;;;17.36;28.43
76590;BME280;65471;55.908;37.880;2023-04-21T09:57:12;99638.09;;;17.65;28.26
76590;BME280;65471;55.908;37.880;2023-04-21T09:59:44;99621.88;;;17.79;27.89
76590;BME280;65471;55.908;37.880;2023-04-21T10:02:13;99621.88;;;17.79;27.75
76590;BME280;65471;55.908;37.880;2023-04-21T10:04:41;99633.31;;;17.91;27.44
76590;BME280;65471;55.908;37.880;2023-04-21T10:07:10;99630.78;;;18.00;27.34
76590;BME280;65471;55.908;37.880;2023-04-21T10:09:44;99617.16;;;17.89;27.54
76590;BME280;65471;55.908;37.880;2023-04-21T10:12:12;99621.56;;;17.90;27.72
76590;BME280;65471;55.908;37.880;2023-04-21T10:14:39;99621.59;;;17.80;27.27
76590;BME280;65471;55.908;37.880;2023-04-21T10:17:09;99613.44;;;17.70;27.24
76590;BME280;65471;55.908;37.880;2023-04-21T10:19:48;99606.38;;;17.69;26.80
76590;BME280;65471;55.908;37.880;2023-04-21T10:22:29;99612.84;;;17.78;26.83
76590;BME280;65471;55.908;37.880;2023-04-21T10:24:57;99609.16;;;18.03;26.98
76590;BME280;65471;55.908;37.880;2023-04-21T10:27:36;99619.66;;;18.55;26.26
76590;BME280;65471;55.908;37.880;2023-04-21T10:30:19;99610.16;;;19.01;26.15
76590;BME280;65471;55.908;37.880;2023-04-21T10:32:48;99604.47;;;19.59;26.06
76590;BME280;65471;55.908;37.880;2023-04-21T10:35:57;99604.19;;;20.32;24.64
76590;BME280;65471;55.908;37.880;2023-04-21T10:38:41;99589.28;;;19.67;25.12
76590;BME280;65471;55.908;37.880;2023-04-21T10:41:32;99592.69;;;19.40;24.89
76590;BME280;65471;55.908;37.880;2023-04-21T10:44:12;99586.09;;;19.60;24.31
76590;BME280;65471;55.908;37.880;2023-04-21T10:46:44;99584.31;;;19.50;25.04
76590;BME280;65471;55.908;37.880;2023-04-21T10:49:27;99583.66;;;19.15;25.97
76590;BME280;65471;55.908;37.880;2023-04-21T10:54:36;99575.50;;;18.61;26.26
76590;BME280;65471;55.908;37.880;2023-04-21T10:57:09;99577.81;;;18.49;26.31
76590;BME280;65471;55.908;37.880;2023-04-21T10:59:37;99580.13;;;18.37;26.15
76590;BME280;65471;55.908;37.880;2023-04-21T11:02:05;99576.88;;;18.35;26.42
76590;BME280;65471;55.908;37.880;2023-04-21T11:04:35;99571.25;;;18.21;25.94
76590;BME280;65471;55.908;37.880;2023-04-21T11:07:23;99567.72;;;18.15;25.43
76590;BME280;65471;55.908;37.880;2023-04-21T11:10:05;99560.19;;;18.31;25.76
76590;BME280;65471;55.908;37.880;2023-04-21T11:12:36;99546.72;;;18.40;25.56
76590;BME280;65471;55.908;37.880;2023-04-21T11:15:08;99551.97;;;18.60;25.98
76590;BME280;65471;55.908;37.880;2023-04-21T11:17:36;99562.16;;;18.79;26.28
76590;BME280;65471;55.908;37.880;2023-04-21T11:20:09;99556.28;;;18.91;26.20
76590;BME280;65471;55.908;37.880;2023-04-21T11:22:36;99562.75;;;18.76;26.22
76590;BME280;65471;55.908;37.880;2023-04-21T11:25:04;99557.50;;;18.55;26.31
76590;BME280;65471;55.908;37.880;2023-04-21T11:27:31;99561.22;;;18.40;26.60
76590;BME280;65471;55.908;37.880;2023-04-21T11:30:02;99561.06;;;18.26;26.46
76590;BME280;65471;55.908;37.880;2023-04-21T11:32:31;99557.94;;;18.09;26.58
76590;BME280;65471;55.908;37.880;2023-04-21T11:34:58;99555.34;;;17.93;26.32
76590;BME280;65471;55.908;37.880;2023-04-21T11:37:26;99542.53;;;17.84;26.97
76590;BME280;65471;55.908;37.880;2023-04-21T11:39:57;99534.09;;;17.80;26.77
76590;BME280;65471;55.908;37.880;2023-04-21T11:42:25;99532.44;;;17.79;27.25
76590;BME280;65471;55.908;37.880;2023-04-21T11:44:55;99546.16;;;17.74;27.52
76590;BME280;65471;55.908;37.880;2023-04-21T11:47:24;99528.66;;;17.75;27.30
76590;BME280;65471;55.908;37.880;2023-04-21T11:49:54;99526.41;;;17.82;27.08
76590;BME280;65471;55.908;37.880;2023-04-21T11:52:24;99531.69;;;17.68;26.93
76590;BME280;65471;55.908;37.880;2023-04-21T11:55:03;99522.97;;;17.27;27.50
76590;BME280;65471;55.908;37.880;2023-04-21T11:57:32;99533.50;;;16.99;27.69
76590;BME280;65471;55.908;37.880;2023-04-21T12:00:04;99528.09;;;16.73;28.02
76590;BME280;65471;55.908;37.880;2023-04-21T12:02:33;99520.97;;;16.87;28.02
76590;BME280;65471;55.908;37.880;2023-04-21T12:05:02;99513.31;;;17.39;28.04
76590;BME280;65471;55.908;37.880;2023-04-21T12:07:34;99506.94;;;18.72;26.45
76590;BME280;65471;55.908;37.880;2023-04-21T12:10:08;99492.88;;;19.74;25.75
76590;BME280;65471;55.908;37.880;2023-04-21T12:12:37;99496.81;;;20.89;25.11
76590;BME280;65471;55.908;37.880;2023-04-21T12:15:05;99492.94;;;20.90;24.02
76590;BME280;65471;55.908;37.880;2023-04-21T12:17:42;99502.59;;;20.18;24.32
76590;BME280;65471;55.908;37.880;2023-04-21T12:20:10;99496.31;;;20.31;24.78
76590;BME280;65471;55.908;37.880;2023-04-21T12:22:38;99506.38;;;20.92;23.75
76590;BME280;65471;55.908;37.880;2023-04-21T12:25:05;99495.00;;;20.57;23.91
76590;BME280;65471;55.908;37.880;2023-04-21T12:27:32;99497.66;;;19.49;25.04
76590;BME280;65471;55.908;37.880;2023-04-21T12:29:59;99508.31;;;18.93;25.45
76590;BME280;65471;55.908;37.880;2023-04-21T12:32:31;99498.91;;;19.00;25.70
76590;BME280;65471;55.908;37.880;2023-04-21T12:34:58;99488.19;;;19.22;25.49
76590;BME280;65471;55.908;37.880;2023-04-21T12:37:26;99495.56;;;19.27;25.01
76590;BME280;65471;55.908;37.880;2023-04-21T12:39:52;99481.66;;;18.99;25.11
76590;BME280;65471;55.908;37.880;2023-04-21T12:42:19;99472.56;;;18.60;25.98
76590;BME280;65471;55.908;37.880;2023-04-21T12:44:46;99476.34;;;18.16;25.26
76590;BME280;65471;55.908;37.880;2023-04-21T12:47:13;99483.13;;;17.89;25.92
76590;BME280;65471;55.908;37.880;2023-04-21T12:49:40;99481.13;;;17.66;26.27
76590;BME280;65471;55.908;37.880;2023-04-21T12:52:07;99484.31;;;17.43;26.88
76590;BME280;65471;55.908;37.880;2023-04-21T12:54:34;99485.81;;;17.25;27.48
76590;BME280;65471;55.908;37.880;2023-04-21T12:57:01;99482.91;;;17.12;27.86
76590;BME280;65471;55.908;37.880;2023-04-21T12:59:28;99478.75;;;17.19;28.05
76590;BME280;65471;55.908;37.880;2023-04-21T13:01:55;99470.16;;;17.36;28.02
76590;BME280;65471;55.908;37.880;2023-04-21T13:04:22;99472.88;;;17.41;28.26
76590;BME280;65471;55.908;37.880;2023-04-21T13:06:50;99467.53;;;17.21;27.53